PWSweather.com
Personal Weather Stations
Station Observations
NORTHPOLE1
Tombur Subdivision, North Pole, AK 99705

Tombur SubdivisionNorth Pole, AK 99705

Lat: 64.774039, Lon: -147.284862

Elevation: 434

Station Type: Davis Vantage Pro 2

http://kl7ac.com

High Low Average
Temperature 55.2°F12.9°F 48.9°F9.4°F 52.4°F11.3°F
Dew Point 53.2°F11.8°F 48.1°F8.9°F 51.4°F10.8°F
Winds 4.0 mph WSW6.4 mph WSW Calm Calm 1.3 mph 2.1 mph
Wind Gusts 13.0 mph20.9 mph -- 4.9 mph7.9 mph
Humidity 97% 88% 96%
Pressure 29.70 in1005.80 in 29.65 in1004.10 in -
Precipitation 4.16 in105.70 in - -
Hour Temp Dew Point Humidity Winds Wind Gusts Pressure Precip Precip Rate Daily Precip Total
12:00 AM 55.2°F12.9°C 52.0°F11.1°C 89% 2.0 mph WSW3.2 kmh WSW 6.0 mph9.7 kmh 29.68 in1005.1 mb 0.00 in0.0 mm 0.00 in/hr0.0 mm/hr 0.00 in0.0 mm
12:05 AM 55.1°F12.8°C 51.6°F10.9°C 88% 2.0 mph WSW3.2 kmh WSW 6.0 mph9.7 kmh 29.68 in1005.1 mb 0.00 in0.0 mm 0.00 in/hr0.0 mm/hr 0.00 in0.0 mm
12:10 AM 55.0°F12.8°C 51.8°F11.0°C 89% 2.0 mph WSW3.2 kmh WSW 6.0 mph9.7 kmh 29.68 in1005.1 mb 0.00 in0.0 mm 0.00 in/hr0.0 mm/hr 0.00 in0.0 mm
12:15 AM 54.9°F12.7°C 51.7°F10.9°C 89% 2.0 mph WSW3.2 kmh WSW 7.0 mph11.3 kmh 29.68 in1005.1 mb 0.00 in0.0 mm 0.00 in/hr0.0 mm/hr 0.00 in0.0 mm
12:20 AM 54.9°F12.7°C 52.0°F11.1°C 90% 2.0 mph WSW3.2 kmh WSW 7.0 mph11.3 kmh 29.68 in1005.1 mb 0.00 in0.0 mm 0.00 in/hr0.0 mm/hr 0.00 in0.0 mm
12:25 AM 54.8°F12.7°C 51.9°F11.1°C 90% 4.0 mph WSW6.4 kmh WSW 13.0 mph20.9 kmh 29.68 in1005.1 mb 0.00 in0.0 mm 0.00 in/hr0.0 mm/hr 0.00 in0.0 mm
12:30 AM 54.7°F12.6°C 52.1°F11.2°C 91% 3.0 mph WSW4.8 kmh WSW 13.0 mph20.9 kmh 29.68 in1005.1 mb 0.00 in0.0 mm 0.00 in/hr0.0 mm/hr 0.00 in0.0 mm
12:35 AM 54.6°F12.6°C 52.0°F11.1°C 91% 2.0 mph WSW3.2 kmh WSW 5.0 mph8.0 kmh 29.68 in1005.1 mb 0.00 in0.0 mm 0.00 in/hr0.0 mm/hr 0.00 in0.0 mm
12:40 AM 54.5°F12.5°C 51.9°F11.1°C 91% 1.0 mph WSW1.6 kmh WSW 5.0 mph8.0 kmh 29.68 in1005.1 mb 0.00 in0.0 mm 0.00 in/hr0.0 mm/hr 0.00 in0.0 mm
12:45 AM 54.3°F12.4°C 52.0°F11.1°C 92% 1.0 mph WSW1.6 kmh WSW 5.0 mph8.0 kmh 29.68 in1005.1 mb 0.00 in0.0 mm 0.00 in/hr0.0 mm/hr 0.00 in0.0 mm
12:50 AM 54.3°F12.4°C 52.0°F11.1°C 92% 2.0 mph WSW3.2 kmh WSW 5.0 mph8.0 kmh 29.68 in1005.1 mb 0.00 in0.0 mm 0.00 in/hr0.0 mm/hr 0.00 in0.0 mm
12:55 AM 54.2°F12.3°C 51.9°F11.1°C 93% 2.0 mph WSW3.2 kmh WSW 5.0 mph8.0 kmh 29.68 in1005.1 mb 0.00 in0.0 mm 0.00 in/hr0.0 mm/hr 0.00 in0.0 mm
01:00 AM 54.1°F12.3°C 52.1°F11.2°C 93% 2.0 mph WSW3.2 kmh WSW 7.0 mph11.3 kmh 29.69 in1005.4 mb 0.00 in0.0 mm 0.00 in/hr0.0 mm/hr 0.00 in0.0 mm
01:05 AM 54.0°F12.2°C 52.0°F11.1°C 93% 2.0 mph WSW3.2 kmh WSW 7.0 mph11.3 kmh 29.68 in1005.1 mb 0.00 in0.0 mm 0.00 in/hr0.0 mm/hr 0.00 in0.0 mm
01:10 AM 53.9°F12.2°C 51.9°F11.1°C 93% 3.0 mph WSW4.8 kmh WSW 7.0 mph11.3 kmh 29.68 in1005.1 mb 0.01 in0.3 mm 0.12 in/hr3.0 mm/hr 0.01 in0.3 mm
01:15 AM 53.9°F12.2°C 51.9°F11.1°C 93% 3.0 mph WSW4.8 kmh WSW 11.0 mph17.7 kmh 29.68 in1005.1 mb 0.01 in0.3 mm 0.00 in/hr0.0 mm/hr 0.01 in0.3 mm
01:20 AM 53.8°F12.1°C 52.1°F11.2°C 94% 3.0 mph WSW4.8 kmh WSW 11.0 mph17.7 kmh 29.69 in1005.4 mb 0.01 in0.3 mm 0.00 in/hr0.0 mm/hr 0.01 in0.3 mm
01:25 AM 53.7°F12.1°C 52.0°F11.1°C 94% 3.0 mph WSW4.8 kmh WSW 7.0 mph11.3 kmh 29.68 in1005.1 mb 0.01 in0.3 mm 0.00 in/hr0.0 mm/hr 0.01 in0.3 mm
01:30 AM 53.7°F12.1°C 52.0°F11.1°C 94% 1.0 mph WSW1.6 kmh WSW 6.0 mph9.7 kmh 29.68 in1005.1 mb 0.01 in0.3 mm 0.00 in/hr0.0 mm/hr 0.01 in0.3 mm
01:35 AM 53.7°F12.1°C 52.0°F11.1°C 94% 1.0 mph WSW1.6 kmh WSW 4.0 mph6.4 kmh 29.69 in1005.4 mb 0.01 in0.3 mm 0.00 in/hr0.0 mm/hr 0.01 in0.3 mm
01:40 AM 53.6°F12.0°C 51.9°F11.1°C 94% 1.0 mph WSW1.6 kmh WSW 6.0 mph9.7 kmh 29.69 in1005.4 mb 0.02 in0.5 mm 0.12 in/hr3.0 mm/hr 0.02 in0.5 mm
01:45 AM 53.6°F12.0°C 51.9°F11.1°C 94% 2.0 mph W3.2 kmh W 7.0 mph11.3 kmh 29.69 in1005.4 mb 0.02 in0.5 mm 0.00 in/hr0.0 mm/hr 0.02 in0.5 mm
01:50 AM 53.6°F12.0°C 52.2°F11.2°C 95% 2.0 mph WSW3.2 kmh WSW 7.0 mph11.3 kmh 29.69 in1005.4 mb 0.03 in0.8 mm 0.12 in/hr3.0 mm/hr 0.03 in0.8 mm
01:55 AM 53.5°F11.9°C 52.1°F11.2°C 95% 2.0 mph WSW3.2 kmh WSW 7.0 mph11.3 kmh 29.69 in1005.4 mb 0.03 in0.8 mm 0.00 in/hr0.0 mm/hr 0.03 in0.8 mm
02:00 AM 53.5°F11.9°C 52.1°F11.2°C 95% 2.0 mph W3.2 kmh W 5.0 mph8.0 kmh 29.69 in1005.4 mb 0.03 in0.8 mm 0.00 in/hr0.0 mm/hr 0.03 in0.8 mm
02:05 AM 53.4°F11.9°C 52.0°F11.1°C 95% 1.0 mph W1.6 kmh W 5.0 mph8.0 kmh 29.69 in1005.4 mb 0.03 in0.8 mm 0.00 in/hr0.0 mm/hr 0.03 in0.8 mm
02:10 AM 53.3°F11.8°C 51.9°F11.1°C 95% 2.0 mph WSW3.2 kmh WSW 6.0 mph9.7 kmh 29.69 in1005.4 mb 0.02 in0.5 mm 0.00 in/hr0.0 mm/hr 0.03 in0.8 mm
02:15 AM 53.2°F11.8°C 51.8°F11.0°C 95% 2.0 mph WSW3.2 kmh WSW 6.0 mph9.7 kmh 29.69 in1005.4 mb 0.03 in0.8 mm 0.12 in/hr3.0 mm/hr 0.04 in1.0 mm
02:20 AM 53.1°F11.7°C 51.7°F10.9°C 95% 1.0 mph SW1.6 kmh SW 5.0 mph8.0 kmh 29.69 in1005.4 mb 0.03 in0.8 mm 0.00 in/hr0.0 mm/hr 0.04 in1.0 mm
02:25 AM 53.0°F11.7°C 51.6°F10.9°C 95% 2.0 mph SW3.2 kmh SW 6.0 mph9.7 kmh 29.70 in1005.8 mb 0.03 in0.8 mm 0.00 in/hr0.0 mm/hr 0.04 in1.0 mm
02:30 AM 52.9°F11.6°C 51.5°F10.8°C 95% 2.0 mph SW3.2 kmh SW 6.0 mph9.7 kmh 29.70 in1005.8 mb 0.04 in1.0 mm 0.12 in/hr3.0 mm/hr 0.05 in1.3 mm
02:35 AM 52.7°F11.5°C 51.3°F10.7°C 95% 2.0 mph WSW3.2 kmh WSW 11.0 mph17.7 kmh 29.70 in1005.8 mb 0.04 in1.0 mm 0.00 in/hr0.0 mm/hr 0.05 in1.3 mm
02:40 AM 52.5°F11.4°C 51.1°F10.6°C 95% 3.0 mph WSW4.8 kmh WSW 11.0 mph17.7 kmh 29.69 in1005.4 mb 0.03 in0.8 mm 0.00 in/hr0.0 mm/hr 0.05 in1.3 mm
02:45 AM 52.4°F11.3°C 51.0°F10.6°C 95% 2.0 mph SW3.2 kmh SW 7.0 mph11.3 kmh 29.70 in1005.8 mb 0.03 in0.8 mm 0.00 in/hr0.0 mm/hr 0.05 in1.3 mm
02:50 AM 52.2°F11.2°C 50.8°F10.4°C 95% 1.0 mph SW1.6 kmh SW 5.0 mph8.0 kmh 29.70 in1005.8 mb 0.02 in0.5 mm 0.00 in/hr0.0 mm/hr 0.05 in1.3 mm
02:55 AM 52.1°F11.2°C 50.7°F10.4°C 95% 1.0 mph WSW1.6 kmh WSW 5.0 mph8.0 kmh 29.70 in1005.8 mb 0.02 in0.5 mm 0.00 in/hr0.0 mm/hr 0.05 in1.3 mm
03:00 AM 52.1°F11.2°C 50.7°F10.4°C 95% 2.0 mph SW3.2 kmh SW 5.0 mph8.0 kmh 29.70 in1005.8 mb 0.02 in0.5 mm 0.00 in/hr0.0 mm/hr 0.05 in1.3 mm
03:05 AM 51.9°F11.1°C 50.5°F10.3°C 95% 2.0 mph SW3.2 kmh SW 5.0 mph8.0 kmh 29.70 in1005.8 mb 0.02 in0.5 mm 0.00 in/hr0.0 mm/hr 0.05 in1.3 mm
03:10 AM 51.9°F11.1°C 50.5°F10.3°C 95% 2.0 mph SW3.2 kmh SW 5.0 mph8.0 kmh 29.70 in1005.8 mb 0.02 in0.5 mm 0.00 in/hr0.0 mm/hr 0.05 in1.3 mm
03:15 AM 51.8°F11.0°C 50.4°F10.2°C 95% 1.0 mph SW1.6 kmh SW 5.0 mph8.0 kmh 29.69 in1005.4 mb 0.01 in0.3 mm 0.00 in/hr0.0 mm/hr 0.05 in1.3 mm
03:20 AM 51.8°F11.0°C 50.4°F10.2°C 95% 2.0 mph SW3.2 kmh SW 7.0 mph11.3 kmh 29.69 in1005.4 mb 0.01 in0.3 mm 0.00 in/hr0.0 mm/hr 0.05 in1.3 mm
03:25 AM 51.7°F10.9°C 50.6°F10.3°C 96% 2.0 mph SW3.2 kmh SW 7.0 mph11.3 kmh 29.69 in1005.4 mb 0.01 in0.3 mm 0.00 in/hr0.0 mm/hr 0.05 in1.3 mm
03:30 AM 51.7°F10.9°C 50.6°F10.3°C 96% 1.0 mph SW1.6 kmh SW 4.0 mph6.4 kmh 29.69 in1005.4 mb 0.00 in0.0 mm 0.00 in/hr0.0 mm/hr 0.05 in1.3 mm
03:35 AM 51.6°F10.9°C 50.5°F10.3°C 96% 1.0 mph SW1.6 kmh SW 5.0 mph8.0 kmh 29.69 in1005.4 mb 0.00 in0.0 mm 0.00 in/hr0.0 mm/hr 0.05 in1.3 mm
03:40 AM 51.5°F10.8°C 50.4°F10.2°C 96% 1.0 mph SW1.6 kmh SW 5.0 mph8.0 kmh 29.69 in1005.4 mb 0.01 in0.3 mm 0.12 in/hr3.0 mm/hr 0.06 in1.5 mm
03:45 AM 51.5°F10.8°C 50.4°F10.2°C 96% 1.0 mph WSW1.6 kmh WSW 4.0 mph6.4 kmh 29.70 in1005.8 mb 0.01 in0.3 mm 0.00 in/hr0.0 mm/hr 0.06 in1.5 mm
03:50 AM 51.5°F10.8°C 50.4°F10.2°C 96% 1.0 mph WSW1.6 kmh WSW 4.0 mph6.4 kmh 29.69 in1005.4 mb 0.01 in0.3 mm 0.00 in/hr0.0 mm/hr 0.06 in1.5 mm
03:55 AM 51.4°F10.8°C 50.3°F10.2°C 96% 1.0 mph WSW1.6 kmh WSW 4.0 mph6.4 kmh 29.69 in1005.4 mb 0.01 in0.3 mm 0.00 in/hr0.0 mm/hr 0.06 in1.5 mm
04:00 AM 51.4°F10.8°C 50.3°F10.2°C 96% 1.0 mph WSW1.6 kmh WSW 3.0 mph4.8 kmh 29.69 in1005.4 mb 0.01 in0.3 mm 0.00 in/hr0.0 mm/hr 0.06 in1.5 mm
04:05 AM 51.4°F10.8°C 50.3°F10.2°C 96% 1.0 mph WSW1.6 kmh WSW 3.0 mph4.8 kmh 29.69 in1005.4 mb 0.01 in0.3 mm 0.00 in/hr0.0 mm/hr 0.06 in1.5 mm
04:10 AM 51.3°F10.7°C 50.2°F10.1°C 96% Calm Calm 3.0 mph4.8 kmh 29.69 in1005.4 mb 0.01 in0.3 mm 0.00 in/hr0.0 mm/hr 0.06 in1.5 mm
04:15 AM 51.3°F10.7°C 50.2°F10.1°C 96% Calm Calm 2.0 mph3.2 kmh 29.69 in1005.4 mb 0.01 in0.3 mm 0.00 in/hr0.0 mm/hr 0.06 in1.5 mm
04:20 AM 51.3°F10.7°C 50.2°F10.1°C 96% Calm Calm 2.0 mph3.2 kmh 29.69 in1005.4 mb 0.01 in0.3 mm 0.00 in/hr0.0 mm/hr 0.06 in1.5 mm
04:25 AM 51.2°F10.7°C 50.1°F10.1°C 96% Calm Calm 2.0 mph3.2 kmh 29.69 in1005.4 mb 0.01 in0.3 mm 0.00 in/hr0.0 mm/hr 0.06 in1.5 mm
04:30 AM 51.2°F10.7°C 50.1°F10.1°C 96% Calm Calm 2.0 mph3.2 kmh 29.69 in1005.4 mb 0.01 in0.3 mm 0.00 in/hr0.0 mm/hr 0.06 in1.5 mm
04:35 AM 51.2°F10.7°C 50.1°F10.1°C 96% Calm Calm 2.0 mph3.2 kmh 29.69 in1005.4 mb 0.01 in0.3 mm 0.00 in/hr0.0 mm/hr 0.06 in1.5 mm
04:40 AM 51.2°F10.7°C 50.1°F10.1°C 96% Calm Calm -- 29.69 in1005.4 mb 0.00 in0.0 mm 0.00 in/hr0.0 mm/hr 0.06 in1.5 mm
04:45 AM 51.2°F10.7°C 50.1°F10.1°C 96% Calm Calm -- 29.69 in1005.4 mb 0.00 in0.0 mm 0.00 in/hr0.0 mm/hr 0.06 in1.5 mm
04:50 AM 51.2°F10.7°C 50.1°F10.1°C 96% Calm Calm -- 29.69 in1005.4 mb 0.00 in0.0 mm 0.00 in/hr0.0 mm/hr 0.06 in1.5 mm
04:55 AM 51.2°F10.7°C 50.1°F10.1°C 96% Calm Calm -- 29.69 in1005.4 mb 0.00 in0.0 mm 0.00 in/hr0.0 mm/hr 0.06 in1.5 mm
05:00 AM 51.2°F10.7°C 50.1°F10.1°C 96% Calm Calm -- 29.69 in1005.4 mb 0.00 in0.0 mm 0.00 in/hr0.0 mm/hr 0.06 in1.5 mm
05:05 AM 51.3°F10.7°C 50.2°F10.1°C 96% Calm Calm -- 29.69 in1005.4 mb 0.00 in0.0 mm 0.00 in/hr0.0 mm/hr 0.06 in1.5 mm
05:10 AM 51.3°F10.7°C 50.5°F10.3°C 97% Calm Calm -- 29.69 in1005.4 mb 0.00 in0.0 mm 0.00 in/hr0.0 mm/hr 0.06 in1.5 mm
05:15 AM 51.3°F10.7°C 50.5°F10.3°C 97% Calm Calm -- 29.69 in1005.4 mb 0.00 in0.0 mm 0.00 in/hr0.0 mm/hr 0.06 in1.5 mm
05:20 AM 51.3°F10.7°C 50.5°F10.3°C 97% Calm Calm -- 29.69 in1005.4 mb 0.00 in0.0 mm 0.00 in/hr0.0 mm/hr 0.06 in1.5 mm
05:25 AM 51.3°F10.7°C 50.5°F10.3°C 97% Calm Calm 2.0 mph3.2 kmh 29.69 in1005.4 mb 0.00 in0.0 mm 0.00 in/hr0.0 mm/hr 0.06 in1.5 mm
05:30 AM 51.2°F10.7°C 50.4°F10.2°C 97% Calm Calm 2.0 mph3.2 kmh 29.69 in1005.4 mb 0.00 in0.0 mm 0.00 in/hr0.0 mm/hr 0.06 in1.5 mm
05:35 AM 51.2°F10.7°C 50.4°F10.2°C 97% 1.0 mph WSW1.6 kmh WSW 2.0 mph3.2 kmh 29.69 in1005.4 mb 0.00 in0.0 mm 0.00 in/hr0.0 mm/hr 0.06 in1.5 mm
05:40 AM 51.2°F10.7°C 50.4°F10.2°C 97% 1.0 mph SW1.6 kmh SW 3.0 mph4.8 kmh 29.69 in1005.4 mb 0.00 in0.0 mm 0.00 in/hr0.0 mm/hr 0.06 in1.5 mm
05:45 AM 51.2°F10.7°C 50.4°F10.2°C 97% 1.0 mph SW1.6 kmh SW 3.0 mph4.8 kmh 29.69 in1005.4 mb 0.00 in0.0 mm 0.00 in/hr0.0 mm/hr 0.06 in1.5 mm
05:50 AM 51.2°F10.7°C 50.4°F10.2°C 97% 1.0 mph SW1.6 kmh SW 4.0 mph6.4 kmh 29.69 in1005.4 mb 0.00 in0.0 mm 0.00 in/hr0.0 mm/hr 0.06 in1.5 mm
05:55 AM 51.2°F10.7°C 50.4°F10.2°C 97% 1.0 mph SSW1.6 kmh SSW 4.0 mph6.4 kmh 29.69 in1005.4 mb 0.00 in0.0 mm 0.00 in/hr0.0 mm/hr 0.06 in1.5 mm
06:00 AM 51.3°F10.7°C 50.5°F10.3°C 97% 1.0 mph S1.6 kmh S 4.0 mph6.4 kmh 29.69 in1005.4 mb 0.00 in0.0 mm 0.00 in/hr0.0 mm/hr 0.06 in1.5 mm
06:05 AM 51.3°F10.7°C 50.5°F10.3°C 97% 1.0 mph S1.6 kmh S 4.0 mph6.4 kmh 29.69 in1005.4 mb 0.00 in0.0 mm 0.00 in/hr0.0 mm/hr 0.06 in1.5 mm
06:10 AM 51.2°F10.7°C 50.4°F10.2°C 97% 1.0 mph SSW1.6 kmh SSW 6.0 mph9.7 kmh 29.69 in1005.4 mb 0.00 in0.0 mm 0.00 in/hr0.0 mm/hr 0.06 in1.5 mm
06:15 AM 51.2°F10.7°C 50.4°F10.2°C 97% 2.0 mph SSW3.2 kmh SSW 6.0 mph9.7 kmh 29.69 in1005.4 mb 0.00 in0.0 mm 0.00 in/hr0.0 mm/hr 0.06 in1.5 mm
06:20 AM 51.2°F10.7°C 50.4°F10.2°C 97% 2.0 mph S3.2 kmh S 5.0 mph8.0 kmh 29.69 in1005.4 mb 0.01 in0.3 mm 0.12 in/hr3.0 mm/hr 0.07 in1.8 mm
06:25 AM 51.2°F10.7°C 50.4°F10.2°C 97% 2.0 mph S3.2 kmh S 6.0 mph9.7 kmh 29.69 in1005.4 mb 0.01 in0.3 mm 0.00 in/hr0.0 mm/hr 0.07 in1.8 mm
06:30 AM 51.3°F10.7°C 50.5°F10.3°C 97% 2.0 mph SSW3.2 kmh SSW 6.0 mph9.7 kmh 29.69 in1005.4 mb 0.01 in0.3 mm 0.00 in/hr0.0 mm/hr 0.07 in1.8 mm
06:35 AM 51.3°F10.7°C 50.5°F10.3°C 97% 1.0 mph SSW1.6 kmh SSW 6.0 mph9.7 kmh 29.69 in1005.4 mb 0.01 in0.3 mm 0.00 in/hr0.0 mm/hr 0.07 in1.8 mm
06:40 AM 51.3°F10.7°C 50.5°F10.3°C 97% 1.0 mph S1.6 kmh S 5.0 mph8.0 kmh 29.69 in1005.4 mb 0.01 in0.3 mm 0.00 in/hr0.0 mm/hr 0.07 in1.8 mm
06:45 AM 51.3°F10.7°C 50.5°F10.3°C 97% 2.0 mph SSW3.2 kmh SSW 6.0 mph9.7 kmh 29.69 in1005.4 mb 0.01 in0.3 mm 0.00 in/hr0.0 mm/hr 0.07 in1.8 mm
06:50 AM 51.3°F10.7°C 50.5°F10.3°C 97% 2.0 mph S3.2 kmh S 6.0 mph9.7 kmh 29.69 in1005.4 mb 0.02 in0.5 mm 0.12 in/hr3.0 mm/hr 0.08 in2.0 mm
06:55 AM 51.3°F10.7°C 50.5°F10.3°C 97% 1.0 mph S1.6 kmh S 4.0 mph6.4 kmh 29.69 in1005.4 mb 0.02 in0.5 mm 0.00 in/hr0.0 mm/hr 0.08 in2.0 mm
07:00 AM 51.4°F10.8°C 50.6°F10.3°C 97% 1.0 mph SSW1.6 kmh SSW 6.0 mph9.7 kmh 29.69 in1005.4 mb 0.02 in0.5 mm 0.00 in/hr0.0 mm/hr 0.08 in2.0 mm
07:05 AM 51.4°F10.8°C 50.6°F10.3°C 97% 1.0 mph SSW1.6 kmh SSW 6.0 mph9.7 kmh 29.69 in1005.4 mb 0.02 in0.5 mm 0.00 in/hr0.0 mm/hr 0.08 in2.0 mm
07:10 AM 51.4°F10.8°C 50.6°F10.3°C 97% 1.0 mph SSW1.6 kmh SSW 6.0 mph9.7 kmh 29.69 in1005.4 mb 0.02 in0.5 mm 0.00 in/hr0.0 mm/hr 0.08 in2.0 mm
07:15 AM 51.4°F10.8°C 50.6°F10.3°C 97% 2.0 mph SSW3.2 kmh SSW 5.0 mph8.0 kmh 29.69 in1005.4 mb 0.03 in0.8 mm 0.12 in/hr3.0 mm/hr 0.09 in2.3 mm
07:20 AM 51.5°F10.8°C 50.7°F10.4°C 97% 1.0 mph SSW1.6 kmh SSW 5.0 mph8.0 kmh 29.69 in1005.4 mb 0.02 in0.5 mm 0.00 in/hr0.0 mm/hr 0.09 in2.3 mm
07:25 AM 51.5°F10.8°C 50.7°F10.4°C 97% 1.0 mph SSW1.6 kmh SSW 5.0 mph8.0 kmh 29.69 in1005.4 mb 0.02 in0.5 mm 0.00 in/hr0.0 mm/hr 0.09 in2.3 mm
07:30 AM 51.5°F10.8°C 50.7°F10.4°C 97% 2.0 mph S3.2 kmh S 5.0 mph8.0 kmh 29.69 in1005.4 mb 0.02 in0.5 mm 0.00 in/hr0.0 mm/hr 0.09 in2.3 mm
07:35 AM 51.5°F10.8°C 50.7°F10.4°C 97% 1.0 mph S1.6 kmh S 5.0 mph8.0 kmh 29.69 in1005.4 mb 0.02 in0.5 mm 0.00 in/hr0.0 mm/hr 0.09 in2.3 mm
07:40 AM 51.5°F10.8°C 50.7°F10.4°C 97% 1.0 mph S1.6 kmh S 4.0 mph6.4 kmh 29.69 in1005.4 mb 0.02 in0.5 mm 0.00 in/hr0.0 mm/hr 0.09 in2.3 mm
07:45 AM 51.5°F10.8°C 50.7°F10.4°C 97% 1.0 mph S1.6 kmh S 4.0 mph6.4 kmh 29.69 in1005.4 mb 0.03 in0.8 mm 0.12 in/hr3.0 mm/hr 0.10 in2.5 mm
07:50 AM 51.6°F10.9°C 50.8°F10.4°C 97% 1.0 mph SW1.6 kmh SW 4.0 mph6.4 kmh 29.69 in1005.4 mb 0.02 in0.5 mm 0.00 in/hr0.0 mm/hr 0.10 in2.5 mm
07:55 AM 51.5°F10.8°C 50.7°F10.4°C 97% 1.0 mph SSW1.6 kmh SSW 5.0 mph8.0 kmh 29.69 in1005.4 mb 0.02 in0.5 mm 0.00 in/hr0.0 mm/hr 0.10 in2.5 mm
08:00 AM 51.6°F10.9°C 50.8°F10.4°C 97% 1.0 mph SSW1.6 kmh SSW 5.0 mph8.0 kmh 29.69 in1005.4 mb 0.02 in0.5 mm 0.00 in/hr0.0 mm/hr 0.10 in2.5 mm
08:05 AM 51.7°F10.9°C 50.9°F10.5°C 97% 1.0 mph SW1.6 kmh SW 6.0 mph9.7 kmh 29.69 in1005.4 mb 0.02 in0.5 mm 0.00 in/hr0.0 mm/hr 0.10 in2.5 mm
08:10 AM 51.8°F11.0°C 51.0°F10.6°C 97% 2.0 mph SW3.2 kmh SW 6.0 mph9.7 kmh 29.69 in1005.4 mb 0.02 in0.5 mm 0.00 in/hr0.0 mm/hr 0.10 in2.5 mm
08:15 AM 51.8°F11.0°C 51.0°F10.6°C 97% 2.0 mph SW3.2 kmh SW 6.0 mph9.7 kmh 29.69 in1005.4 mb 0.01 in0.3 mm 0.00 in/hr0.0 mm/hr 0.10 in2.5 mm
08:20 AM 51.8°F11.0°C 51.0°F10.6°C 97% 2.0 mph SW3.2 kmh SW 5.0 mph8.0 kmh 29.69 in1005.4 mb 0.01 in0.3 mm 0.00 in/hr0.0 mm/hr 0.10 in2.5 mm
08:25 AM 51.8°F11.0°C 51.0°F10.6°C 97% 1.0 mph SSW1.6 kmh SSW 5.0 mph8.0 kmh 29.69 in1005.4 mb 0.01 in0.3 mm 0.00 in/hr0.0 mm/hr 0.10 in2.5 mm
08:30 AM 51.9°F11.1°C 51.1°F10.6°C 97% 1.0 mph SW1.6 kmh SW 4.0 mph6.4 kmh 29.69 in1005.4 mb 0.02 in0.5 mm 0.12 in/hr3.0 mm/hr 0.11 in2.8 mm
08:35 AM 51.9°F11.1°C 51.1°F10.6°C 97% 1.0 mph SW1.6 kmh SW 4.0 mph6.4 kmh 29.69 in1005.4 mb 0.02 in0.5 mm 0.00 in/hr0.0 mm/hr 0.11 in2.8 mm
08:40 AM 52.0°F11.1°C 51.2°F10.7°C 97% 1.0 mph SSW1.6 kmh SSW 5.0 mph8.0 kmh 29.69 in1005.4 mb 0.02 in0.5 mm 0.00 in/hr0.0 mm/hr 0.11 in2.8 mm
08:45 AM 52.0°F11.1°C 51.2°F10.7°C 97% 2.0 mph SSW3.2 kmh SSW 5.0 mph8.0 kmh 29.69 in1005.4 mb 0.01 in0.3 mm 0.00 in/hr0.0 mm/hr 0.11 in2.8 mm
08:50 AM 52.0°F11.1°C 51.2°F10.7°C 97% 1.0 mph SW1.6 kmh SW 5.0 mph8.0 kmh 29.69 in1005.4 mb 0.01 in0.3 mm 0.00 in/hr0.0 mm/hr 0.11 in2.8 mm
08:55 AM 51.9°F11.1°C 51.1°F10.6°C 97% 1.0 mph SW1.6 kmh SW 5.0 mph8.0 kmh 29.69 in1005.4 mb 0.01 in0.3 mm 0.00 in/hr0.0 mm/hr 0.11 in2.8 mm
09:00 AM 51.9°F11.1°C 51.1°F10.6°C 97% 2.0 mph SW3.2 kmh SW 5.0 mph8.0 kmh 29.69 in1005.4 mb 0.02 in0.5 mm 0.01 in/hr0.3 mm/hr 0.12 in3.0 mm
09:05 AM 52.1°F11.2°C 51.3°F10.7°C 97% 1.0 mph SW1.6 kmh SW 4.0 mph6.4 kmh 29.69 in1005.4 mb 0.02 in0.5 mm 0.00 in/hr0.0 mm/hr 0.12 in3.0 mm
09:10 AM 52.3°F11.3°C 51.5°F10.8°C 97% 1.0 mph SW1.6 kmh SW 5.0 mph8.0 kmh 29.69 in1005.4 mb 0.02 in0.5 mm 0.00 in/hr0.0 mm/hr 0.12 in3.0 mm
09:15 AM 52.4°F11.3°C 51.6°F10.9°C 97% 1.0 mph SW1.6 kmh SW 5.0 mph8.0 kmh 29.69 in1005.4 mb 0.02 in0.5 mm 0.00 in/hr0.0 mm/hr 0.12 in3.0 mm
09:20 AM 52.4°F11.3°C 51.6°F10.9°C 97% 1.0 mph S1.6 kmh S 6.0 mph9.7 kmh 29.69 in1005.4 mb 0.02 in0.5 mm 0.00 in/hr0.0 mm/hr 0.12 in3.0 mm
09:25 AM 52.5°F11.4°C 51.7°F10.9°C 97% 1.0 mph S1.6 kmh S 6.0 mph9.7 kmh 29.69 in1005.4 mb 0.02 in0.5 mm 0.00 in/hr0.0 mm/hr 0.12 in3.0 mm
09:30 AM 52.5°F11.4°C 51.7°F10.9°C 97% 1.0 mph SSW1.6 kmh SSW 4.0 mph6.4 kmh 29.69 in1005.4 mb 0.01 in0.3 mm 0.00 in/hr0.0 mm/hr 0.12 in3.0 mm
09:35 AM 52.5°F11.4°C 51.7°F10.9°C 97% 1.0 mph SSW1.6 kmh SSW 4.0 mph6.4 kmh 29.68 in1005.1 mb 0.02 in0.5 mm 0.12 in/hr3.0 mm/hr 0.13 in3.3 mm
09:40 AM 52.5°F11.4°C 51.7°F10.9°C 97% 1.0 mph S1.6 kmh S 4.0 mph6.4 kmh 29.68 in1005.1 mb 0.02 in0.5 mm 0.00 in/hr0.0 mm/hr 0.13 in3.3 mm
09:45 AM 52.5°F11.4°C 51.7°F10.9°C 97% 1.0 mph SW1.6 kmh SW 4.0 mph6.4 kmh 29.69 in1005.4 mb 0.03 in0.8 mm 0.12 in/hr3.0 mm/hr 0.14 in3.6 mm
09:50 AM 52.5°F11.4°C 51.7°F10.9°C 97% 1.0 mph SW1.6 kmh SW 4.0 mph6.4 kmh 29.69 in1005.4 mb 0.03 in0.8 mm 0.00 in/hr0.0 mm/hr 0.14 in3.6 mm
09:55 AM 52.4°F11.3°C 51.6°F10.9°C 97% 1.0 mph S1.6 kmh S 3.0 mph4.8 kmh 29.69 in1005.4 mb 0.03 in0.8 mm 0.00 in/hr0.0 mm/hr 0.14 in3.6 mm
10:00 AM 52.4°F11.3°C 51.6°F10.9°C 97% 1.0 mph S1.6 kmh S 4.0 mph6.4 kmh 29.69 in1005.4 mb 0.02 in0.5 mm 0.00 in/hr0.0 mm/hr 0.14 in3.6 mm
10:05 AM 52.4°F11.3°C 51.6°F10.9°C 97% 1.0 mph SSW1.6 kmh SSW 4.0 mph6.4 kmh 29.69 in1005.4 mb 0.02 in0.5 mm 0.00 in/hr0.0 mm/hr 0.14 in3.6 mm
10:10 AM 52.4°F11.3°C 51.6°F10.9°C 97% 1.0 mph SSW1.6 kmh SSW 7.0 mph11.3 kmh 29.69 in1005.4 mb 0.03 in0.8 mm 0.12 in/hr3.0 mm/hr 0.15 in3.8 mm
10:15 AM 52.4°F11.3°C 51.6°F10.9°C 97% 2.0 mph S3.2 kmh S 7.0 mph11.3 kmh 29.69 in1005.4 mb 0.03 in0.8 mm 0.00 in/hr0.0 mm/hr 0.15 in3.8 mm
10:20 AM 52.4°F11.3°C 51.6°F10.9°C 97% 2.0 mph S3.2 kmh S 6.0 mph9.7 kmh 29.69 in1005.4 mb 0.03 in0.8 mm 0.00 in/hr0.0 mm/hr 0.15 in3.8 mm
10:25 AM 52.5°F11.4°C 51.7°F10.9°C 97% 1.0 mph S1.6 kmh S 6.0 mph9.7 kmh 29.69 in1005.4 mb 0.03 in0.8 mm 0.00 in/hr0.0 mm/hr 0.15 in3.8 mm
10:30 AM 52.5°F11.4°C 51.7°F10.9°C 97% 2.0 mph S3.2 kmh S 6.0 mph9.7 kmh 29.68 in1005.1 mb 0.03 in0.8 mm 0.00 in/hr0.0 mm/hr 0.15 in3.8 mm
10:35 AM 52.6°F11.4°C 51.8°F11.0°C 97% 2.0 mph S3.2 kmh S 6.0 mph9.7 kmh 29.69 in1005.4 mb 0.02 in0.5 mm 0.00 in/hr0.0 mm/hr 0.15 in3.8 mm
10:40 AM 52.5°F11.4°C 51.7°F10.9°C 97% 1.0 mph S1.6 kmh S 6.0 mph9.7 kmh 29.68 in1005.1 mb 0.03 in0.8 mm 0.12 in/hr3.0 mm/hr 0.16 in4.1 mm
10:45 AM 52.6°F11.4°C 51.8°F11.0°C 97% 1.0 mph SSW1.6 kmh SSW 4.0 mph6.4 kmh 29.68 in1005.1 mb 0.02 in0.5 mm 0.00 in/hr0.0 mm/hr 0.16 in4.1 mm
10:50 AM 52.8°F11.6°C 52.0°F11.1°C 97% 2.0 mph SSW3.2 kmh SSW 5.0 mph8.0 kmh 29.68 in1005.1 mb 0.02 in0.5 mm 0.00 in/hr0.0 mm/hr 0.16 in4.1 mm
10:55 AM 52.8°F11.6°C 52.0°F11.1°C 97% 2.0 mph SW3.2 kmh SW 5.0 mph8.0 kmh 29.68 in1005.1 mb 0.02 in0.5 mm 0.00 in/hr0.0 mm/hr 0.16 in4.1 mm
11:00 AM 52.9°F11.6°C 52.1°F11.2°C 97% 2.0 mph SW3.2 kmh SW 5.0 mph8.0 kmh 29.68 in1005.1 mb 0.02 in0.5 mm 0.00 in/hr0.0 mm/hr 0.16 in4.1 mm
11:05 AM 53.0°F11.7°C 52.2°F11.2°C 97% 2.0 mph SW3.2 kmh SW 8.0 mph12.9 kmh 29.68 in1005.1 mb 0.03 in0.8 mm 0.12 in/hr3.0 mm/hr 0.17 in4.3 mm
11:10 AM 53.0°F11.7°C 52.2°F11.2°C 97% 3.0 mph SW4.8 kmh SW 8.0 mph12.9 kmh 29.68 in1005.1 mb 0.02 in0.5 mm 0.00 in/hr0.0 mm/hr 0.17 in4.3 mm
11:15 AM 53.0°F11.7°C 52.2°F11.2°C 97% 2.0 mph SW3.2 kmh SW 7.0 mph11.3 kmh 29.68 in1005.1 mb 0.02 in0.5 mm 0.00 in/hr0.0 mm/hr 0.17 in4.3 mm
11:20 AM 53.0°F11.7°C 52.2°F11.2°C 97% 3.0 mph SW4.8 kmh SW 8.0 mph12.9 kmh 29.68 in1005.1 mb 0.02 in0.5 mm 0.00 in/hr0.0 mm/hr 0.17 in4.3 mm
11:25 AM 53.0°F11.7°C 52.2°F11.2°C 97% 3.0 mph SW4.8 kmh SW 8.0 mph12.9 kmh 29.68 in1005.1 mb 0.02 in0.5 mm 0.00 in/hr0.0 mm/hr 0.17 in4.3 mm
11:30 AM 53.0°F11.7°C 52.2°F11.2°C 97% 3.0 mph SW4.8 kmh SW 7.0 mph11.3 kmh 29.68 in1005.1 mb 0.02 in0.5 mm 0.00 in/hr0.0 mm/hr 0.17 in4.3 mm
11:35 AM 53.2°F11.8°C 52.4°F11.3°C 97% 2.0 mph SW3.2 kmh SW 6.0 mph9.7 kmh 29.68 in1005.1 mb 0.02 in0.5 mm 0.00 in/hr0.0 mm/hr 0.17 in4.3 mm
11:40 AM 53.2°F11.8°C 52.4°F11.3°C 97% 2.0 mph SW3.2 kmh SW 6.0 mph9.7 kmh 29.68 in1005.1 mb 0.01 in0.3 mm 0.00 in/hr0.0 mm/hr 0.17 in4.3 mm
11:45 AM 53.3°F11.8°C 52.5°F11.4°C 97% 1.0 mph SW1.6 kmh SW 5.0 mph8.0 kmh 29.68 in1005.1 mb 0.01 in0.3 mm 0.00 in/hr0.0 mm/hr 0.17 in4.3 mm
11:50 AM 53.2°F11.8°C 52.4°F11.3°C 97% 1.0 mph WSW1.6 kmh WSW 5.0 mph8.0 kmh 29.68 in1005.1 mb 0.01 in0.3 mm 0.00 in/hr0.0 mm/hr 0.17 in4.3 mm
11:55 AM 53.2°F11.8°C 52.4°F11.3°C 97% 2.0 mph SW3.2 kmh SW 5.0 mph8.0 kmh 29.68 in1005.1 mb 0.01 in0.3 mm 0.00 in/hr0.0 mm/hr 0.17 in4.3 mm
12:00 PM 53.1°F11.7°C 52.3°F11.3°C 97% 2.0 mph SW3.2 kmh SW 5.0 mph8.0 kmh 29.68 in1005.1 mb 0.00 in0.0 mm 0.00 in/hr0.0 mm/hr 0.17 in4.3 mm
12:05 PM 53.1°F11.7°C 52.3°F11.3°C 97% 2.0 mph SW3.2 kmh SW 5.0 mph8.0 kmh 29.68 in1005.1 mb 0.00 in0.0 mm 0.00 in/hr0.0 mm/hr 0.17 in4.3 mm
12:10 PM 53.1°F11.7°C 52.3°F11.3°C 97% 2.0 mph SW3.2 kmh SW 5.0 mph8.0 kmh 29.68 in1005.1 mb 0.00 in0.0 mm 0.00 in/hr0.0 mm/hr 0.17 in4.3 mm
12:15 PM 53.0°F11.7°C 52.2°F11.2°C 97% 1.0 mph WSW1.6 kmh WSW 5.0 mph8.0 kmh 29.68 in1005.1 mb 0.00 in0.0 mm 0.00 in/hr0.0 mm/hr 0.17 in4.3 mm
12:20 PM 53.0°F11.7°C 51.9°F11.1°C 96% 1.0 mph WSW1.6 kmh WSW 4.0 mph6.4 kmh 29.68 in1005.1 mb 0.00 in0.0 mm 0.00 in/hr0.0 mm/hr 0.17 in4.3 mm
12:25 PM 53.1°F11.7°C 52.3°F11.3°C 97% 1.0 mph WSW1.6 kmh WSW 6.0 mph9.7 kmh 29.68 in1005.1 mb 0.00 in0.0 mm 0.00 in/hr0.0 mm/hr 0.17 in4.3 mm
12:30 PM 53.1°F11.7°C 52.3°F11.3°C 97% 2.0 mph WSW3.2 kmh WSW 6.0 mph9.7 kmh 29.68 in1005.1 mb 0.00 in0.0 mm 0.00 in/hr0.0 mm/hr 0.17 in4.3 mm
12:35 PM 53.1°F11.7°C 52.3°F11.3°C 97% 1.0 mph WSW1.6 kmh WSW 5.0 mph8.0 kmh 29.68 in1005.1 mb 0.00 in0.0 mm 0.00 in/hr0.0 mm/hr 0.17 in4.3 mm
12:40 PM 53.1°F11.7°C 52.3°F11.3°C 97% 1.0 mph WSW1.6 kmh WSW 5.0 mph8.0 kmh 29.68 in1005.1 mb 0.01 in0.3 mm 0.12 in/hr3.0 mm/hr 0.18 in4.6 mm
12:45 PM 53.1°F11.7°C 52.3°F11.3°C 97% 1.0 mph WSW1.6 kmh WSW 3.0 mph4.8 kmh 29.68 in1005.1 mb 0.01 in0.3 mm 0.00 in/hr0.0 mm/hr 0.18 in4.6 mm
12:50 PM 53.2°F11.8°C 52.4°F11.3°C 97% 1.0 mph WSW1.6 kmh WSW 4.0 mph6.4 kmh 29.68 in1005.1 mb 0.01 in0.3 mm 0.00 in/hr0.0 mm/hr 0.18 in4.6 mm
12:55 PM 53.3°F11.8°C 52.5°F11.4°C 97% 1.0 mph WSW1.6 kmh WSW 4.0 mph6.4 kmh 29.68 in1005.1 mb 0.01 in0.3 mm 0.00 in/hr0.0 mm/hr 0.18 in4.6 mm
01:00 PM 53.2°F11.8°C 52.4°F11.3°C 97% 2.0 mph WSW3.2 kmh WSW 5.0 mph8.0 kmh 29.68 in1005.1 mb 0.01 in0.3 mm 0.00 in/hr0.0 mm/hr 0.18 in4.6 mm
01:05 PM 53.2°F11.8°C 52.4°F11.3°C 97% 1.0 mph WSW1.6 kmh WSW 5.0 mph8.0 kmh 29.68 in1005.1 mb 0.01 in0.3 mm 0.00 in/hr0.0 mm/hr 0.18 in4.6 mm
01:10 PM 53.3°F11.8°C 52.5°F11.4°C 97% 1.0 mph WSW1.6 kmh WSW 4.0 mph6.4 kmh 29.68 in1005.1 mb 0.01 in0.3 mm 0.00 in/hr0.0 mm/hr 0.18 in4.6 mm
01:15 PM 53.3°F11.8°C 52.5°F11.4°C 97% 1.0 mph WSW1.6 kmh WSW 4.0 mph6.4 kmh 29.68 in1005.1 mb 0.02 in0.5 mm 0.12 in/hr3.0 mm/hr 0.19 in4.8 mm
01:20 PM 53.4°F11.9°C 52.6°F11.4°C 97% Calm Calm 4.0 mph6.4 kmh 29.68 in1005.1 mb 0.02 in0.5 mm 0.00 in/hr0.0 mm/hr 0.19 in4.8 mm
01:25 PM 53.3°F11.8°C 52.5°F11.4°C 97% 1.0 mph WSW1.6 kmh WSW 4.0 mph6.4 kmh 29.68 in1005.1 mb 0.02 in0.5 mm 0.00 in/hr0.0 mm/hr 0.19 in4.8 mm
01:30 PM 53.2°F11.8°C 52.4°F11.3°C 97% 1.0 mph WSW1.6 kmh WSW 3.0 mph4.8 kmh 29.68 in1005.1 mb 0.02 in0.5 mm 0.00 in/hr0.0 mm/hr 0.19 in4.8 mm
01:35 PM 53.2°F11.8°C 52.4°F11.3°C 97% 1.0 mph WSW1.6 kmh WSW 3.0 mph4.8 kmh 29.68 in1005.1 mb 0.02 in0.5 mm 0.00 in/hr0.0 mm/hr 0.19 in4.8 mm
01:40 PM 53.2°F11.8°C 52.4°F11.3°C 97% Calm Calm 3.0 mph4.8 kmh 29.67 in1004.7 mb 0.01 in0.3 mm 0.00 in/hr0.0 mm/hr 0.19 in4.8 mm
01:45 PM 53.3°F11.8°C 52.5°F11.4°C 97% Calm Calm 3.0 mph4.8 kmh 29.68 in1005.1 mb 0.01 in0.3 mm 0.00 in/hr0.0 mm/hr 0.19 in4.8 mm
01:50 PM 53.5°F11.9°C 52.7°F11.5°C 97% 1.0 mph WSW1.6 kmh WSW 3.0 mph4.8 kmh 29.67 in1004.7 mb 0.01 in0.3 mm 0.00 in/hr0.0 mm/hr 0.19 in4.8 mm
01:55 PM 53.5°F11.9°C 52.7°F11.5°C 97% 1.0 mph WSW1.6 kmh WSW 4.0 mph6.4 kmh 29.67 in1004.7 mb 0.01 in0.3 mm 0.00 in/hr0.0 mm/hr 0.19 in4.8 mm
02:00 PM 53.4°F11.9°C 52.3°F11.3°C 96% 1.0 mph WSW1.6 kmh WSW 4.0 mph6.4 kmh 29.67 in1004.7 mb 0.01 in0.3 mm 0.00 in/hr0.0 mm/hr 0.19 in4.8 mm
02:05 PM 53.4°F11.9°C 52.3°F11.3°C 96% 1.0 mph WSW1.6 kmh WSW 3.0 mph4.8 kmh 29.67 in1004.7 mb 0.01 in0.3 mm 0.00 in/hr0.0 mm/hr 0.19 in4.8 mm
02:10 PM 53.5°F11.9°C 52.7°F11.5°C 97% 1.0 mph WSW1.6 kmh WSW 3.0 mph4.8 kmh 29.67 in1004.7 mb 0.01 in0.3 mm 0.00 in/hr0.0 mm/hr 0.19 in4.8 mm
02:15 PM 53.6°F12.0°C 52.5°F11.4°C 96% 1.0 mph WSW1.6 kmh WSW 3.0 mph4.8 kmh 29.67 in1004.7 mb 0.01 in0.3 mm 0.00 in/hr0.0 mm/hr 0.20 in5.1 mm
02:20 PM 53.6°F12.0°C 52.8°F11.6°C 97% Calm Calm 2.0 mph3.2 kmh 29.67 in1004.7 mb 0.01 in0.3 mm 0.00 in/hr0.0 mm/hr 0.20 in5.1 mm
02:25 PM 53.6°F12.0°C 52.8°F11.6°C 97% Calm Calm 3.0 mph4.8 kmh 29.67 in1004.7 mb 0.01 in0.3 mm 0.00 in/hr0.0 mm/hr 0.20 in5.1 mm
02:30 PM 53.6°F12.0°C 52.5°F11.4°C 96% 1.0 mph WSW1.6 kmh WSW 3.0 mph4.8 kmh 29.67 in1004.7 mb 0.01 in0.3 mm 0.00 in/hr0.0 mm/hr 0.20 in5.1 mm
02:35 PM 53.5°F11.9°C 52.4°F11.3°C 96% 1.0 mph WSW1.6 kmh WSW 2.0 mph3.2 kmh 29.67 in1004.7 mb 0.02 in0.5 mm 0.12 in/hr3.0 mm/hr 0.21 in5.3 mm
02:40 PM 53.5°F11.9°C 52.7°F11.5°C 97% Calm Calm 2.0 mph3.2 kmh 29.67 in1004.7 mb 0.03 in0.8 mm 0.12 in/hr3.0 mm/hr 0.22 in5.6 mm
02:45 PM 53.5°F11.9°C 52.7°F11.5°C 97% Calm Calm 3.0 mph4.8 kmh 29.67 in1004.7 mb 0.03 in0.8 mm 0.00 in/hr0.0 mm/hr 0.22 in5.6 mm
02:50 PM 53.6°F12.0°C 52.8°F11.6°C 97% 1.0 mph WSW1.6 kmh WSW 3.0 mph4.8 kmh 29.67 in1004.7 mb 0.03 in0.8 mm 0.00 in/hr0.0 mm/hr 0.22 in5.6 mm
02:55 PM 53.8°F12.1°C 53.0°F11.7°C 97% 1.0 mph WSW1.6 kmh WSW 3.0 mph4.8 kmh 29.67 in1004.7 mb 0.04 in1.0 mm 0.12 in/hr3.0 mm/hr 0.23 in5.8 mm
03:00 PM 53.9°F12.2°C 53.1°F11.7°C 97% 1.0 mph WSW1.6 kmh WSW 3.0 mph4.8 kmh 29.66 in1004.4 mb 0.04 in1.0 mm 0.00 in/hr0.0 mm/hr 0.23 in5.8 mm
03:10 PM 54.0°F12.2°C 53.2°F11.8°C 97% 1.0 mph WNW1.6 kmh WNW 3.0 mph4.8 kmh 29.67 in1004.7 mb 0.04 in1.0 mm 0.00 in/hr0.0 mm/hr 0.23 in5.8 mm
03:15 PM 53.9°F12.2°C 53.1°F11.7°C 97% 1.0 mph WNW1.6 kmh WNW 3.0 mph4.8 kmh 29.66 in1004.4 mb 0.03 in0.8 mm 0.00 in/hr0.0 mm/hr 0.23 in5.8 mm
03:20 PM 53.8°F12.1°C 53.0°F11.7°C 97% Calm Calm 3.0 mph4.8 kmh 29.66 in1004.4 mb 0.04 in1.0 mm 0.12 in/hr3.0 mm/hr 0.24 in6.1 mm
03:25 PM 53.8°F12.1°C 53.0°F11.7°C 97% Calm Calm 2.0 mph3.2 kmh 29.66 in1004.4 mb 0.04 in1.0 mm 0.00 in/hr0.0 mm/hr 0.24 in6.1 mm
03:30 PM 53.9°F12.2°C 53.1°F11.7°C 97% Calm Calm 2.0 mph3.2 kmh 29.66 in1004.4 mb 0.04 in1.0 mm 0.00 in/hr0.0 mm/hr 0.24 in6.1 mm
03:35 PM 53.8°F12.1°C 53.0°F11.7°C 97% Calm Calm 2.0 mph3.2 kmh 29.66 in1004.4 mb 0.03 in0.8 mm 0.00 in/hr0.0 mm/hr 0.24 in6.1 mm
03:40 PM 53.8°F12.1°C 53.0°F11.7°C 97% Calm Calm 2.0 mph3.2 kmh 29.66 in1004.4 mb 0.03 in0.8 mm 0.00 in/hr0.0 mm/hr 0.25 in6.4 mm
03:45 PM 53.8°F12.1°C 53.0°F11.7°C 97% 1.0 mph WNW1.6 kmh WNW 2.0 mph3.2 kmh 29.66 in1004.4 mb 0.03 in0.8 mm 0.00 in/hr0.0 mm/hr 0.25 in6.4 mm
03:50 PM 53.7°F12.1°C 52.9°F11.6°C 97% 1.0 mph WNW1.6 kmh WNW 2.0 mph3.2 kmh 29.66 in1004.4 mb 0.03 in0.8 mm 0.00 in/hr0.0 mm/hr 0.25 in6.4 mm
03:55 PM 53.8°F12.1°C 53.0°F11.7°C 97% Calm Calm 3.0 mph4.8 kmh 29.66 in1004.4 mb 0.03 in0.8 mm 0.00 in/hr0.0 mm/hr 0.26 in6.6 mm
04:00 PM 53.9°F12.2°C 53.1°F11.7°C 97% 1.0 mph WNW1.6 kmh WNW 3.0 mph4.8 kmh 29.66 in1004.4 mb 0.03 in0.8 mm 0.00 in/hr0.0 mm/hr 0.26 in6.6 mm
04:05 PM 53.9°F12.2°C 53.1°F11.7°C 97% 1.0 mph WNW1.6 kmh WNW 3.0 mph4.8 kmh 29.66 in1004.4 mb 0.03 in0.8 mm 0.00 in/hr0.0 mm/hr 0.26 in6.6 mm
04:10 PM 53.9°F12.2°C 53.1°F11.7°C 97% 1.0 mph WNW1.6 kmh WNW 3.0 mph4.8 kmh 29.66 in1004.4 mb 0.03 in0.8 mm 0.00 in/hr0.0 mm/hr 0.26 in6.6 mm
04:15 PM 53.9°F12.2°C 53.1°F11.7°C 97% Calm Calm 2.0 mph3.2 kmh 29.66 in1004.4 mb 0.04 in1.0 mm 0.12 in/hr3.0 mm/hr 0.27 in6.9 mm
04:20 PM 53.8°F12.1°C 53.0°F11.7°C 97% Calm Calm 2.0 mph3.2 kmh 29.66 in1004.4 mb 0.03 in0.8 mm 0.00 in/hr0.0 mm/hr 0.27 in6.9 mm
04:25 PM 53.8°F12.1°C 53.0°F11.7°C 97% Calm Calm 1.0 mph1.6 kmh 29.66 in1004.4 mb 0.03 in0.8 mm 0.00 in/hr0.0 mm/hr 0.27 in6.9 mm
04:30 PM 53.8°F12.1°C 53.0°F11.7°C 97% Calm Calm 2.0 mph3.2 kmh 29.66 in1004.4 mb 0.03 in0.8 mm 0.00 in/hr0.0 mm/hr 0.27 in6.9 mm
04:35 PM 53.8°F12.1°C 53.0°F11.7°C 97% Calm Calm 2.0 mph3.2 kmh 29.66 in1004.4 mb 0.03 in0.8 mm 0.00 in/hr0.0 mm/hr 0.27 in6.9 mm
04:40 PM 53.9°F12.2°C 53.1°F11.7°C 97% Calm Calm 2.0 mph3.2 kmh 29.66 in1004.4 mb 0.03 in0.8 mm 0.00 in/hr0.0 mm/hr 0.28 in7.1 mm
04:45 PM 53.9°F12.2°C 53.1°F11.7°C 97% Calm Calm 2.0 mph3.2 kmh 29.66 in1004.4 mb 0.03 in0.8 mm 0.00 in/hr0.0 mm/hr 0.28 in7.1 mm
04:50 PM 53.9°F12.2°C 53.1°F11.7°C 97% Calm Calm 2.0 mph3.2 kmh 29.66 in1004.4 mb 0.04 in1.0 mm 0.12 in/hr3.0 mm/hr 0.29 in7.4 mm
04:55 PM 53.8°F12.1°C 53.0°F11.7°C 97% Calm Calm 2.0 mph3.2 kmh 29.66 in1004.4 mb 0.03 in0.8 mm 0.00 in/hr0.0 mm/hr 0.29 in7.4 mm
05:00 PM 53.8°F12.1°C 53.0°F11.7°C 97% 1.0 mph WNW1.6 kmh WNW 2.0 mph3.2 kmh 29.65 in1004.1 mb 0.03 in0.8 mm 0.00 in/hr0.0 mm/hr 0.29 in7.4 mm
05:05 PM 53.8°F12.1°C 53.0°F11.7°C 97% Calm Calm 2.0 mph3.2 kmh 29.65 in1004.1 mb 0.03 in0.8 mm 0.00 in/hr0.0 mm/hr 0.29 in7.4 mm
05:10 PM 53.8°F12.1°C 53.0°F11.7°C 97% Calm Calm 2.0 mph3.2 kmh 29.66 in1004.4 mb 0.04 in1.0 mm 0.12 in/hr3.0 mm/hr 0.30 in7.6 mm
05:15 PM 53.8°F12.1°C 53.0°F11.7°C 97% Calm Calm 2.0 mph3.2 kmh 29.65 in1004.1 mb 0.03 in0.8 mm 0.00 in/hr0.0 mm/hr 0.30 in7.6 mm
05:20 PM 53.9°F12.2°C 53.1°F11.7°C 97% Calm Calm 2.0 mph3.2 kmh 29.65 in1004.1 mb 0.03 in0.8 mm 0.00 in/hr0.0 mm/hr 0.30 in7.6 mm
05:25 PM 54.0°F12.2°C 53.2°F11.8°C 97% Calm Calm 2.0 mph3.2 kmh 29.65 in1004.1 mb 0.03 in0.8 mm 0.00 in/hr0.0 mm/hr 0.30 in7.6 mm
05:30 PM 53.9°F12.2°C 53.1°F11.7°C 97% Calm Calm 2.0 mph3.2 kmh 29.65 in1004.1 mb 0.03 in0.8 mm 0.00 in/hr0.0 mm/hr 0.30 in7.6 mm
05:35 PM 53.8°F12.1°C 53.0°F11.7°C 97% 1.0 mph WNW1.6 kmh WNW 3.0 mph4.8 kmh 29.65 in1004.1 mb 0.03 in0.8 mm 0.00 in/hr0.0 mm/hr 0.30 in7.6 mm
05:40 PM 53.7°F12.1°C 52.9°F11.6°C 97% 1.0 mph WSW1.6 kmh WSW 3.0 mph4.8 kmh 29.65 in1004.1 mb 0.02 in0.5 mm 0.00 in/hr0.0 mm/hr 0.30 in7.6 mm
05:45 PM 53.7°F12.1°C 52.9°F11.6°C 97% 1.0 mph SW1.6 kmh SW 5.0 mph8.0 kmh 29.65 in1004.1 mb 0.02 in0.5 mm 0.00 in/hr0.0 mm/hr 0.30 in7.6 mm
05:50 PM 53.6°F12.0°C 52.8°F11.6°C 97% 2.0 mph SW3.2 kmh SW 6.0 mph9.7 kmh 29.65 in1004.1 mb 0.01 in0.3 mm 0.00 in/hr0.0 mm/hr 0.30 in7.6 mm
05:55 PM 53.5°F11.9°C 52.7°F11.5°C 97% 2.0 mph SW3.2 kmh SW 6.0 mph9.7 kmh 29.65 in1004.1 mb 0.01 in0.3 mm 0.00 in/hr0.0 mm/hr 0.30 in7.6 mm
06:00 PM 53.5°F11.9°C 52.7°F11.5°C 97% 1.0 mph SW1.6 kmh SW 4.0 mph6.4 kmh 29.65 in1004.1 mb 0.01 in0.3 mm 0.00 in/hr0.0 mm/hr 0.30 in7.6 mm
06:05 PM 53.6°F12.0°C 52.8°F11.6°C 97% 1.0 mph SW1.6 kmh SW 5.0 mph8.0 kmh 29.65 in1004.1 mb 0.01 in0.3 mm 0.00 in/hr0.0 mm/hr 0.30 in7.6 mm
06:10 PM 53.5°F11.9°C 52.7°F11.5°C 97% 2.0 mph SW3.2 kmh SW 6.0 mph9.7 kmh 29.65 in1004.1 mb 0.00 in0.0 mm 0.00 in/hr0.0 mm/hr 0.30 in7.6 mm
06:15 PM 53.5°F11.9°C 52.7°F11.5°C 97% 1.0 mph SW1.6 kmh SW 6.0 mph9.7 kmh 29.65 in1004.1 mb 0.00 in0.0 mm 0.00 in/hr0.0 mm/hr 0.30 in7.6 mm
06:20 PM 53.5°F11.9°C 52.7°F11.5°C 97% 1.0 mph SW1.6 kmh SW 7.0 mph11.3 kmh 29.65 in1004.1 mb 0.00 in0.0 mm 0.00 in/hr0.0 mm/hr 0.30 in7.6 mm
06:25 PM 53.4°F11.9°C 52.6°F11.4°C 97% 2.0 mph SW3.2 kmh SW 7.0 mph11.3 kmh 29.65 in1004.1 mb 0.00 in0.0 mm 0.00 in/hr0.0 mm/hr 0.30 in7.6 mm
06:30 PM 53.2°F11.8°C 52.4°F11.3°C 97% 3.0 mph SW4.8 kmh SW 7.0 mph11.3 kmh 29.65 in1004.1 mb 0.00 in0.0 mm 0.00 in/hr0.0 mm/hr 0.30 in7.6 mm
06:35 PM 53.0°F11.7°C 52.2°F11.2°C 97% 2.0 mph SW3.2 kmh SW 6.0 mph9.7 kmh 29.65 in1004.1 mb 0.01 in0.3 mm 0.12 in/hr3.0 mm/hr 0.31 in7.9 mm
06:40 PM 52.9°F11.6°C 52.1°F11.2°C 97% 2.0 mph SW3.2 kmh SW 5.0 mph8.0 kmh 29.65 in1004.1 mb 0.01 in0.3 mm 0.00 in/hr0.0 mm/hr 0.31 in7.9 mm
06:45 PM 52.7°F11.5°C 51.9°F11.1°C 97% 2.0 mph SW3.2 kmh SW 7.0 mph11.3 kmh 29.65 in1004.1 mb 0.01 in0.3 mm 0.00 in/hr0.0 mm/hr 0.31 in7.9 mm
06:50 PM 52.6°F11.4°C 51.8°F11.0°C 97% 2.0 mph SW3.2 kmh SW 7.0 mph11.3 kmh 29.65 in1004.1 mb 0.01 in0.3 mm 0.00 in/hr0.0 mm/hr 0.31 in7.9 mm
06:55 PM 52.6°F11.4°C 51.8°F11.0°C 97% 1.0 mph SW1.6 kmh SW 4.0 mph6.4 kmh 29.65 in1004.1 mb 0.01 in0.3 mm 0.00 in/hr0.0 mm/hr 0.31 in7.9 mm
07:00 PM 52.6°F11.4°C 51.8°F11.0°C 97% 1.0 mph SW1.6 kmh SW 5.0 mph8.0 kmh 29.65 in1004.1 mb 0.01 in0.3 mm 0.00 in/hr0.0 mm/hr 0.31 in7.9 mm
07:05 PM 52.6°F11.4°C 51.8°F11.0°C 97% 1.0 mph SW1.6 kmh SW 6.0 mph9.7 kmh 29.65 in1004.1 mb 0.01 in0.3 mm 0.00 in/hr0.0 mm/hr 0.31 in7.9 mm
07:10 PM 52.5°F11.4°C 51.7°F10.9°C 97% 2.0 mph SW3.2 kmh SW 6.0 mph9.7 kmh 29.65 in1004.1 mb 0.01 in0.3 mm 0.00 in/hr0.0 mm/hr 0.31 in7.9 mm
07:15 PM 52.5°F11.4°C 51.7°F10.9°C 97% 2.0 mph SW3.2 kmh SW 6.0 mph9.7 kmh 29.65 in1004.1 mb 0.01 in0.3 mm 0.00 in/hr0.0 mm/hr 0.31 in7.9 mm
07:20 PM 52.5°F11.4°C 51.7°F10.9°C 97% 2.0 mph SW3.2 kmh SW 7.0 mph11.3 kmh 29.65 in1004.1 mb 0.01 in0.3 mm 0.00 in/hr0.0 mm/hr 0.31 in7.9 mm
07:25 PM 52.4°F11.3°C 51.6°F10.9°C 97% 2.0 mph SW3.2 kmh SW 7.0 mph11.3 kmh 29.65 in1004.1 mb 0.01 in0.3 mm 0.00 in/hr0.0 mm/hr 0.31 in7.9 mm
07:30 PM 52.4°F11.3°C 51.6°F10.9°C 97% 2.0 mph SW3.2 kmh SW 9.0 mph14.5 kmh 29.65 in1004.1 mb 0.01 in0.3 mm 0.00 in/hr0.0 mm/hr 0.31 in7.9 mm
07:35 PM 52.4°F11.3°C 51.6°F10.9°C 97% 2.0 mph SW3.2 kmh SW 9.0 mph14.5 kmh 29.65 in1004.1 mb 0.00 in0.0 mm 0.00 in/hr0.0 mm/hr 0.31 in7.9 mm
07:40 PM 52.5°F11.4°C 51.7°F10.9°C 97% 2.0 mph SW3.2 kmh SW 5.0 mph8.0 kmh 29.66 in1004.4 mb 0.00 in0.0 mm 0.00 in/hr0.0 mm/hr 0.31 in7.9 mm
07:45 PM 52.5°F11.4°C 51.7°F10.9°C 97% 1.0 mph SW1.6 kmh SW 7.0 mph11.3 kmh 29.66 in1004.4 mb 0.00 in0.0 mm 0.00 in/hr0.0 mm/hr 0.31 in7.9 mm
07:50 PM 52.5°F11.4°C 51.7°F10.9°C 97% 2.0 mph SW3.2 kmh SW 7.0 mph11.3 kmh 29.65 in1004.1 mb 0.00 in0.0 mm 0.00 in/hr0.0 mm/hr 0.31 in7.9 mm
07:55 PM 52.4°F11.3°C 51.6°F10.9°C 97% 2.0 mph SW3.2 kmh SW 6.0 mph9.7 kmh 29.65 in1004.1 mb 0.00 in0.0 mm 0.00 in/hr0.0 mm/hr 0.31 in7.9 mm
08:00 PM 52.4°F11.3°C 51.6°F10.9°C 97% 2.0 mph SW3.2 kmh SW 5.0 mph8.0 kmh 29.65 in1004.1 mb 0.00 in0.0 mm 0.00 in/hr0.0 mm/hr 0.31 in7.9 mm
08:05 PM 52.5°F11.4°C 51.7°F10.9°C 97% 1.0 mph SW1.6 kmh SW 5.0 mph8.0 kmh 29.65 in1004.1 mb 0.00 in0.0 mm 0.00 in/hr0.0 mm/hr 0.31 in7.9 mm
08:10 PM 52.5°F11.4°C 51.7°F10.9°C 97% 2.0 mph SW3.2 kmh SW 5.0 mph8.0 kmh 29.65 in1004.1 mb 0.00 in0.0 mm 0.00 in/hr0.0 mm/hr 0.31 in7.9 mm
08:15 PM 52.5°F11.4°C 51.7°F10.9°C 97% 2.0 mph SW3.2 kmh SW 6.0 mph9.7 kmh 29.65 in1004.1 mb 0.00 in0.0 mm 0.00 in/hr0.0 mm/hr 0.31 in7.9 mm
08:20 PM 52.5°F11.4°C 51.7°F10.9°C 97% 2.0 mph SW3.2 kmh SW 6.0 mph9.7 kmh 29.65 in1004.1 mb 0.00 in0.0 mm 0.00 in/hr0.0 mm/hr 0.31 in7.9 mm
08:25 PM 52.4°F11.3°C 51.6°F10.9°C 97% 2.0 mph SW3.2 kmh SW 11.0 mph17.7 kmh 29.66 in1004.4 mb 0.00 in0.0 mm 0.00 in/hr0.0 mm/hr 0.31 in7.9 mm
08:30 PM 52.3°F11.3°C 51.5°F10.8°C 97% 2.0 mph SW3.2 kmh SW 11.0 mph17.7 kmh 29.66 in1004.4 mb 0.00 in0.0 mm 0.00 in/hr0.0 mm/hr 0.31 in7.9 mm
08:35 PM 52.2°F11.2°C 51.4°F10.8°C 97% 3.0 mph SW4.8 kmh SW 9.0 mph14.5 kmh 29.66 in1004.4 mb 0.00 in0.0 mm 0.00 in/hr0.0 mm/hr 0.31 in7.9 mm
08:40 PM 52.2°F11.2°C 51.4°F10.8°C 97% 2.0 mph SW3.2 kmh SW 10.0 mph16.1 kmh 29.66 in1004.4 mb 0.00 in0.0 mm 0.00 in/hr0.0 mm/hr 0.31 in7.9 mm
08:45 PM 52.2°F11.2°C 51.4°F10.8°C 97% 3.0 mph SW4.8 kmh SW 10.0 mph16.1 kmh 29.66 in1004.4 mb 0.00 in0.0 mm 0.00 in/hr0.0 mm/hr 0.31 in7.9 mm
08:50 PM 52.1°F11.2°C 51.3°F10.7°C 97% 4.0 mph WSW6.4 kmh WSW 11.0 mph17.7 kmh 29.66 in1004.4 mb 0.01 in0.3 mm 0.12 in/hr3.0 mm/hr 0.32 in8.1 mm
08:55 PM 52.0°F11.1°C 51.2°F10.7°C 97% 3.0 mph SW4.8 kmh SW 11.0 mph17.7 kmh 29.66 in1004.4 mb 0.01 in0.3 mm 0.00 in/hr0.0 mm/hr 0.32 in8.1 mm
09:00 PM 51.9°F11.1°C 51.1°F10.6°C 97% 3.0 mph WSW4.8 kmh WSW 10.0 mph16.1 kmh 29.66 in1004.4 mb 0.01 in0.3 mm 0.00 in/hr0.0 mm/hr 0.32 in8.1 mm
09:05 PM 51.7°F10.9°C 50.9°F10.5°C 97% 3.0 mph WSW4.8 kmh WSW 10.0 mph16.1 kmh 29.66 in1004.4 mb 0.01 in0.3 mm 0.00 in/hr0.0 mm/hr 0.32 in8.1 mm
09:10 PM 51.5°F10.8°C 50.7°F10.4°C 97% 4.0 mph WSW6.4 kmh WSW 10.0 mph16.1 kmh 29.67 in1004.7 mb 0.02 in0.5 mm 0.12 in/hr3.0 mm/hr 0.33 in8.4 mm
09:15 PM 51.2°F10.7°C 50.4°F10.2°C 97% 3.0 mph WSW4.8 kmh WSW 10.0 mph16.1 kmh 29.67 in1004.7 mb 0.02 in0.5 mm 0.00 in/hr0.0 mm/hr 0.33 in8.4 mm
09:20 PM 51.0°F10.6°C 49.9°F9.9°C 96% 3.0 mph WSW4.8 kmh WSW 10.0 mph16.1 kmh 29.67 in1004.7 mb 0.02 in0.5 mm 0.00 in/hr0.0 mm/hr 0.33 in8.4 mm
09:25 PM 50.8°F10.4°C 49.7°F9.8°C 96% 2.0 mph SW3.2 kmh SW 10.0 mph16.1 kmh 29.67 in1004.7 mb 0.02 in0.5 mm 0.00 in/hr0.0 mm/hr 0.33 in8.4 mm
09:30 PM 50.6°F10.3°C 49.8°F9.9°C 97% 2.0 mph WSW3.2 kmh WSW 7.0 mph11.3 kmh 29.67 in1004.7 mb 0.02 in0.5 mm 0.00 in/hr0.0 mm/hr 0.33 in8.4 mm
09:35 PM 50.5°F10.3°C 49.4°F9.7°C 96% 2.0 mph WSW3.2 kmh WSW 7.0 mph11.3 kmh 29.68 in1005.1 mb 0.02 in0.5 mm 0.00 in/hr0.0 mm/hr 0.33 in8.4 mm
09:40 PM 50.4°F10.2°C 49.3°F9.6°C 96% 2.0 mph WSW3.2 kmh WSW 7.0 mph11.3 kmh 29.68 in1005.1 mb 0.02 in0.5 mm 0.00 in/hr0.0 mm/hr 0.33 in8.4 mm
09:45 PM 50.3°F10.2°C 49.2°F9.6°C 96% 2.0 mph WSW3.2 kmh WSW 7.0 mph11.3 kmh 29.68 in1005.1 mb 0.01 in0.3 mm 0.00 in/hr0.0 mm/hr 0.33 in8.4 mm
09:50 PM 50.2°F10.1°C 49.4°F9.7°C 97% 2.0 mph SW3.2 kmh SW 6.0 mph9.7 kmh 29.68 in1005.1 mb 0.02 in0.5 mm 0.12 in/hr3.0 mm/hr 0.34 in8.6 mm
09:55 PM 50.1°F10.1°C 49.3°F9.6°C 97% 2.0 mph SW3.2 kmh SW 10.0 mph16.1 kmh 29.68 in1005.1 mb 0.02 in0.5 mm 0.00 in/hr0.0 mm/hr 0.34 in8.6 mm
10:00 PM 50.0°F10.0°C 49.2°F9.6°C 97% 2.0 mph SW3.2 kmh SW 10.0 mph16.1 kmh 29.68 in1005.1 mb 0.02 in0.5 mm 0.00 in/hr0.0 mm/hr 0.34 in8.6 mm
10:05 PM 50.0°F10.0°C 48.9°F9.4°C 96% 1.0 mph SW1.6 kmh SW 7.0 mph11.3 kmh 29.68 in1005.1 mb 0.03 in0.8 mm 0.12 in/hr3.0 mm/hr 0.35 in8.9 mm
10:10 PM 49.9°F9.9°C 49.1°F9.5°C 97% 1.0 mph SW1.6 kmh SW 5.0 mph8.0 kmh 29.68 in1005.1 mb 0.02 in0.5 mm 0.00 in/hr0.0 mm/hr 0.35 in8.9 mm
10:15 PM 49.8°F9.9°C 49.0°F9.4°C 97% 1.0 mph SW1.6 kmh SW 4.0 mph6.4 kmh 29.68 in1005.1 mb 0.02 in0.5 mm 0.00 in/hr0.0 mm/hr 0.35 in8.9 mm
10:20 PM 49.7°F9.8°C 48.9°F9.4°C 97% 1.0 mph SW1.6 kmh SW 4.0 mph6.4 kmh 29.68 in1005.1 mb 0.02 in0.5 mm 0.00 in/hr0.0 mm/hr 0.35 in8.9 mm
10:25 PM 49.7°F9.8°C 48.9°F9.4°C 97% 1.0 mph SW1.6 kmh SW 4.0 mph6.4 kmh 29.68 in1005.1 mb 0.02 in0.5 mm 0.00 in/hr0.0 mm/hr 0.35 in8.9 mm
10:30 PM 49.6°F9.8°C 48.8°F9.3°C 97% 1.0 mph SW1.6 kmh SW 3.0 mph4.8 kmh 29.68 in1005.1 mb 0.02 in0.5 mm 0.00 in/hr0.0 mm/hr 0.35 in8.9 mm
10:35 PM 49.6°F9.8°C 48.8°F9.3°C 97% 1.0 mph SW1.6 kmh SW 3.0 mph4.8 kmh 29.68 in1005.1 mb 0.02 in0.5 mm 0.00 in/hr0.0 mm/hr 0.35 in8.9 mm
10:40 PM 49.5°F9.7°C 48.7°F9.3°C 97% 1.0 mph SW1.6 kmh SW 3.0 mph4.8 kmh 29.68 in1005.1 mb 0.02 in0.5 mm 0.00 in/hr0.0 mm/hr 0.35 in8.9 mm
10:45 PM 49.5°F9.7°C 48.7°F9.3°C 97% 1.0 mph SW1.6 kmh SW 4.0 mph6.4 kmh 29.69 in1005.4 mb 0.02 in0.5 mm 0.00 in/hr0.0 mm/hr 0.35 in8.9 mm
10:50 PM 49.4°F9.7°C 48.6°F9.2°C 97% 1.0 mph SW1.6 kmh SW 4.0 mph6.4 kmh 29.68 in1005.1 mb 0.01 in0.3 mm 0.00 in/hr0.0 mm/hr 0.35 in8.9 mm
10:55 PM 49.4°F9.7°C 48.6°F9.2°C 97% 1.0 mph SW1.6 kmh SW 3.0 mph4.8 kmh 29.69 in1005.4 mb 0.01 in0.3 mm 0.00 in/hr0.0 mm/hr 0.35 in8.9 mm
11:00 PM 49.3°F9.6°C 48.5°F9.2°C 97% 1.0 mph SW1.6 kmh SW 3.0 mph4.8 kmh 29.69 in1005.4 mb 0.01 in0.3 mm 0.00 in/hr0.0 mm/hr 0.31 in7.9 mm
11:05 PM 49.2°F9.6°C 48.4°F9.1°C 97% 1.0 mph SW1.6 kmh SW 3.0 mph4.8 kmh 29.69 in1005.4 mb 0.00 in0.0 mm 0.00 in/hr0.0 mm/hr 0.31 in7.9 mm
11:10 PM 49.2°F9.6°C 48.4°F9.1°C 97% Calm Calm 3.0 mph4.8 kmh 29.69 in1005.4 mb 0.00 in0.0 mm 0.00 in/hr0.0 mm/hr 0.31 in7.9 mm
11:15 PM 49.1°F9.5°C 48.3°F9.1°C 97% Calm Calm 3.0 mph4.8 kmh 29.69 in1005.4 mb 0.00 in0.0 mm 0.00 in/hr0.0 mm/hr 0.31 in7.9 mm
11:20 PM 49.0°F9.4°C 48.2°F9.0°C 97% Calm Calm 2.0 mph3.2 kmh 29.69 in1005.4 mb 0.00 in0.0 mm 0.00 in/hr0.0 mm/hr 0.31 in7.9 mm
11:25 PM 49.0°F9.4°C 48.2°F9.0°C 97% Calm Calm 2.0 mph3.2 kmh 29.69 in1005.4 mb 0.00 in0.0 mm 0.00 in/hr0.0 mm/hr 0.31 in7.9 mm
11:30 PM 48.9°F9.4°C 48.1°F8.9°C 97% Calm Calm 2.0 mph3.2 kmh 29.69 in1005.4 mb 0.00 in0.0 mm 0.00 in/hr0.0 mm/hr 0.31 in7.9 mm
11:35 PM 49.0°F9.4°C 48.2°F9.0°C 97% Calm Calm 2.0 mph3.2 kmh 29.69 in1005.4 mb 0.00 in0.0 mm 0.00 in/hr0.0 mm/hr 0.31 in7.9 mm
11:40 PM 49.0°F9.4°C 48.2°F9.0°C 97% Calm Calm 2.0 mph3.2 kmh 29.69 in1005.4 mb 0.00 in0.0 mm 0.00 in/hr0.0 mm/hr 0.31 in7.9 mm
11:45 PM 49.0°F9.4°C 48.2°F9.0°C 97% Calm Calm 2.0 mph3.2 kmh 29.69 in1005.4 mb 0.00 in0.0 mm 0.00 in/hr0.0 mm/hr 0.31 in7.9 mm
11:50 PM 49.0°F9.4°C 48.2°F9.0°C 97% 1.0 mph SSW1.6 kmh SSW 2.0 mph3.2 kmh 29.69 in1005.4 mb 0.01 in0.3 mm 0.12 in/hr3.0 mm/hr 0.01 in0.3 mm
11:55 PM 49.1°F9.5°C 48.3°F9.1°C 97% Calm Calm 2.0 mph3.2 kmh 29.69 in1005.4 mb 0.01 in0.3 mm 0.00 in/hr0.0 mm/hr 0.01 in0.3 mm